createdAt,value
2017-09-11T00:01:12.973Z,20.31
2017-09-11T00:03:39.449Z,20.36
2017-09-11T00:06:05.888Z,20.43
2017-09-11T00:08:32.422Z,20.40
2017-09-11T00:10:59.580Z,20.18
2017-09-11T00:13:26.115Z,19.96
2017-09-11T00:15:52.547Z,19.85
2017-09-11T00:18:18.985Z,19.87
2017-09-11T00:20:45.416Z,20.04
2017-09-11T00:23:11.828Z,20.16
2017-09-11T00:25:38.270Z,20.17
2017-09-11T00:28:05.443Z,20.08
2017-09-11T00:30:31.874Z,20.06
2017-09-11T00:32:58.501Z,20.10
2017-09-11T00:35:24.942Z,20.15
2017-09-11T00:37:51.483Z,20.09
2017-09-11T00:40:17.918Z,20.08
2017-09-11T00:42:44.351Z,19.95
2017-09-11T00:45:11.604Z,19.84
2017-09-11T00:47:38.145Z,19.85
2017-09-11T00:50:04.581Z,19.94
2017-09-11T00:52:30.968Z,20.06
2017-09-11T00:54:57.451Z,20.11
2017-09-11T00:57:23.885Z,20.06
2017-09-11T00:59:50.320Z,19.90
2017-09-11T01:02:17.459Z,19.75
2017-09-11T01:04:44.009Z,19.69
2017-09-11T01:07:10.444Z,19.63
2017-09-11T01:09:36.878Z,19.58
2017-09-11T01:12:03.316Z,19.64
2017-09-11T01:14:29.748Z,19.68
2017-09-11T01:16:56.166Z,19.65
2017-09-11T01:19:23.432Z,19.67
2017-09-11T01:21:49.872Z,19.80
2017-09-11T01:24:16.372Z,19.83
2017-09-11T01:26:42.844Z,19.79
2017-09-11T01:29:09.287Z,19.80
2017-09-11T01:31:35.642Z,19.70
2017-09-11T01:34:02.149Z,19.65
2017-09-11T01:36:29.302Z,19.74
2017-09-11T01:38:55.736Z,19.75
2017-09-11T01:41:22.171Z,19.70
2017-09-11T01:43:48.610Z,19.85
2017-09-11T01:46:15.026Z,19.85
2017-09-11T01:48:41.476Z,19.80
2017-09-11T01:51:07.911Z,19.79
2017-09-11T01:53:35.164Z,19.83
2017-09-11T01:56:01.599Z,19.87
2017-09-11T01:58:28.039Z,19.83
2017-09-11T02:00:54.469Z,19.78
2017-09-11T02:03:20.908Z,19.72
2017-09-11T02:05:47.338Z,19.58
2017-09-11T02:08:13.774Z,19.52
2017-09-11T02:10:40.926Z,19.44
2017-09-11T02:13:07.361Z,19.38
2017-09-11T02:15:33.794Z,19.39
2017-09-11T02:18:00.333Z,19.48
2017-09-11T02:20:26.767Z,19.56
2017-09-11T02:22:53.202Z,19.37
2017-09-11T02:25:19.638Z,19.23
2017-09-11T02:27:46.895Z,19.18
2017-09-11T02:30:13.327Z,19.28
2017-09-11T02:32:39.762Z,19.32
2017-09-11T02:35:06.197Z,19.30
2017-09-11T02:37:32.631Z,19.30
2017-09-11T02:39:59.067Z,19.34
2017-09-11T02:42:25.500Z,19.33
2017-09-11T02:44:52.653Z,19.30
2017-09-11T02:47:19.087Z,19.22
2017-09-11T02:49:45.524Z,19.18
2017-09-11T02:52:11.958Z,19.23
2017-09-11T02:54:38.393Z,19.27
2017-09-11T02:57:04.827Z,19.19
2017-09-11T02:59:31.262Z,19.26
2017-09-11T03:01:58.516Z,19.29
2017-09-11T03:04:24.910Z,19.30
2017-09-11T03:06:51.283Z,19.29
2017-09-11T03:09:17.717Z,19.32
2017-09-11T03:11:44.156Z,19.30
2017-09-11T03:14:10.589Z,19.18
2017-09-11T03:16:37.003Z,19.03
2017-09-11T03:19:04.174Z,18.94
2017-09-11T03:21:30.610Z,18.95
2017-09-11T03:23:57.045Z,18.90
2017-09-11T03:26:23.501Z,18.92
2017-09-11T03:28:50.016Z,18.86
2017-09-11T03:31:16.408Z,18.83
2017-09-11T03:33:42.877Z,18.94
2017-09-11T03:36:10.038Z,19.03
2017-09-11T03:38:36.473Z,19.07
2017-09-11T03:41:02.909Z,18.97
2017-09-11T03:43:29.346Z,18.95
2017-09-11T03:45:55.780Z,18.94
2017-09-11T03:48:22.215Z,19.02
2017-09-11T03:50:48.649Z,19.08
2017-09-11T03:53:15.797Z,19.08
2017-09-11T03:55:42.337Z,19.12
2017-09-11T03:58:08.875Z,19.13
2017-09-11T04:00:35.295Z,19.15
2017-09-11T04:03:01.734Z,19.19
2017-09-11T04:05:28.178Z,19.22
2017-09-11T04:07:54.614Z,19.24
2017-09-11T04:10:21.766Z,19.25
2017-09-11T04:12:48.202Z,19.31
2017-09-11T04:15:14.634Z,19.34
2017-09-11T04:17:41.071Z,19.35
2017-09-11T04:20:07.504Z,19.39
2017-09-11T04:22:33.938Z,19.48
2017-09-11T04:25:00.375Z,19.51
2017-09-11T04:27:27.630Z,19.57
2017-09-11T04:29:54.063Z,19.63
2017-09-11T04:32:20.504Z,19.69
2017-09-11T04:34:46.935Z,19.73
2017-09-11T04:37:13.366Z,19.77
2017-09-11T04:39:39.805Z,19.85
2017-09-11T04:42:06.344Z,19.90
2017-09-11T04:44:33.493Z,19.96
2017-09-11T04:46:59.928Z,20.03
2017-09-11T04:49:26.345Z,20.08
2017-09-11T04:51:52.789Z,20.15
2017-09-11T04:54:19.232Z,20.20
2017-09-11T04:56:45.666Z,20.30
2017-09-11T04:59:12.104Z,20.33
2017-09-11T05:01:39.356Z,20.44
2017-09-11T05:04:05.792Z,20.54
2017-09-11T05:06:32.324Z,20.60
2017-09-11T05:08:58.760Z,20.62
2017-09-11T05:11:25.197Z,20.69
2017-09-11T05:13:51.632Z,20.82
2017-09-11T05:16:18.069Z,20.94
2017-09-11T05:18:45.321Z,21.04
2017-09-11T05:21:11.756Z,21.11
2017-09-11T05:23:38.191Z,21.16
2017-09-11T05:26:04.628Z,21.19
2017-09-11T05:28:31.061Z,21.27
2017-09-11T05:30:57.499Z,21.33
2017-09-11T05:33:23.931Z,21.38
2017-09-11T05:35:51.035Z,21.51
2017-09-11T05:38:17.519Z,21.58
2017-09-11T05:40:44.055Z,21.64
2017-09-11T05:43:10.413Z,21.72
2017-09-11T05:45:36.826Z,21.85
2017-09-11T05:48:03.256Z,21.95
2017-09-11T05:50:29.694Z,22.06
2017-09-11T05:52:56.843Z,22.19
2017-09-11T05:55:23.278Z,22.28
2017-09-11T05:57:49.713Z,22.38
2017-09-11T06:00:16.148Z,22.48
2017-09-11T06:07:29.422Z,22.67
2017-09-11T06:37:41.444Z,24.13
2017-09-11T06:40:07.894Z,24.26
2017-09-11T06:42:34.480Z,24.20
2017-09-11T06:45:01.478Z,24.44
2017-09-11T06:47:28.036Z,24.63
2017-09-11T06:49:54.448Z,24.80
2017-09-11T06:52:20.993Z,24.91
2017-09-11T06:54:47.384Z,25.06
2017-09-11T06:57:13.808Z,25.22
2017-09-11T06:59:40.549Z,25.33
2017-09-11T07:02:06.985Z,25.46
2017-09-11T07:04:33.788Z,25.50
2017-09-11T07:07:00.856Z,25.77
2017-09-11T07:09:27.317Z,25.84
2017-09-11T07:11:53.795Z,26.00
2017-09-11T07:14:20.588Z,26.12
2017-09-11T07:16:47.396Z,26.31
2017-09-11T07:19:13.869Z,26.42
2017-09-11T07:21:40.586Z,26.54
2017-09-11T07:24:07.044Z,26.66
2017-09-11T07:26:33.592Z,26.79
2017-09-11T07:29:00.324Z,26.91
2017-09-11T07:31:26.758Z,27.04
2017-09-11T07:33:53.141Z,27.21
2017-09-11T07:36:19.749Z,27.32
2017-09-11T07:38:46.267Z,27.41
2017-09-11T07:41:12.703Z,27.58
2017-09-11T07:43:39.397Z,27.72
2017-09-11T07:46:05.883Z,27.89
2017-09-11T07:48:32.436Z,28.04
2017-09-11T07:50:59.825Z,28.21
2017-09-11T07:53:26.292Z,28.42
2017-09-11T07:55:52.743Z,28.56
2017-09-11T07:58:20.304Z,28.72
2017-09-11T08:00:46.841Z,28.81
2017-09-11T08:03:13.276Z,28.95
2017-09-11T08:05:39.917Z,29.02
2017-09-11T08:08:06.452Z,29.18
2017-09-11T08:10:32.895Z,29.30
2017-09-11T08:12:59.412Z,29.43
2017-09-11T08:15:26.270Z,29.51
2017-09-11T08:17:52.807Z,29.41
2017-09-11T08:20:19.244Z,29.46
2017-09-11T08:22:45.782Z,29.69
2017-09-11T08:25:12.216Z,29.88
2017-09-11T08:27:38.855Z,29.98
2017-09-11T08:30:05.550Z,30.11
2017-09-11T08:32:32.045Z,30.24
2017-09-11T08:52:38.588Z,31.05
2017-09-11T08:55:06.255Z,31.17
2017-09-11T08:57:33.748Z,31.15
2017-09-11T09:00:00.230Z,31.33
2017-09-11T09:02:26.813Z,31.33
2017-09-11T09:04:53.373Z,31.37
2017-09-11T09:07:19.882Z,31.51
2017-09-11T09:09:46.238Z,31.58
2017-09-11T09:12:12.842Z,31.66
2017-09-11T09:14:39.369Z,31.74
2017-09-11T09:17:05.908Z,31.80
2017-09-11T09:19:32.648Z,31.84
2017-09-11T09:22:00.110Z,31.93
2017-09-11T09:24:26.644Z,32.06
2017-09-11T09:26:53.193Z,31.89
2017-09-11T09:29:19.652Z,31.78
2017-09-11T09:31:46.145Z,31.94
2017-09-11T09:34:12.558Z,32.01
2017-09-11T09:36:39.526Z,32.14
2017-09-11T09:39:05.970Z,32.12
2017-09-11T09:41:32.365Z,32.18
2017-09-11T09:43:58.786Z,31.97
2017-09-11T09:46:25.252Z,32.11
2017-09-11T09:48:51.709Z,32.01
2017-09-11T09:51:18.084Z,32.23
2017-09-11T09:57:11.550Z,32.37
2017-09-11T10:09:43.387Z,32.85
2017-09-11T10:12:10.437Z,32.99
2017-09-11T10:17:08.620Z,33.20
2017-09-11T10:19:35.072Z,33.12
2017-09-11T10:22:01.482Z,33.18
2017-09-11T10:24:27.887Z,33.35
2017-09-11T10:26:55.292Z,33.32
2017-09-11T10:29:21.728Z,33.33
2017-09-11T10:31:48.163Z,33.46
2017-09-11T10:34:14.616Z,33.45
2017-09-11T10:36:41.133Z,33.55
2017-09-11T10:39:07.568Z,33.63
2017-09-11T10:41:34.004Z,33.56
2017-09-11T10:44:00.441Z,33.55
2017-09-11T10:46:26.822Z,33.58
2017-09-11T10:48:53.410Z,33.70
2017-09-11T10:51:19.814Z,33.60
2017-09-11T10:53:46.281Z,33.71
2017-09-11T10:56:12.718Z,33.85
2017-09-11T10:58:39.150Z,33.68
2017-09-11T11:01:05.585Z,33.72
2017-09-11T11:03:32.020Z,33.62
2017-09-11T11:05:58.558Z,33.74
2017-09-11T11:08:24.991Z,33.83
2017-09-11T11:10:51.427Z,33.91
2017-09-11T11:13:17.862Z,34.01
2017-09-11T11:15:44.661Z,34.20
2017-09-11T11:18:11.122Z,34.54
2017-09-11T11:20:37.575Z,34.77
2017-09-11T11:23:04.010Z,35.02
2017-09-11T11:25:30.446Z,35.82
2017-09-11T11:27:56.983Z,36.16
2017-09-11T11:30:23.725Z,36.43
2017-09-11T11:32:50.265Z,36.67
2017-09-11T11:35:16.847Z,37.10
2017-09-11T11:37:43.295Z,37.00
2017-09-11T11:40:09.775Z,37.24
2017-09-11T11:42:36.210Z,37.62
2017-09-11T11:45:02.642Z,38.07
2017-09-11T11:47:29.251Z,38.42
2017-09-11T11:49:56.174Z,38.45
2017-09-11T11:52:22.663Z,38.29
2017-09-11T11:54:49.360Z,38.71
2017-09-11T11:57:16.299Z,38.90
2017-09-11T11:59:42.787Z,38.75
2017-09-11T12:02:09.324Z,38.99
2017-09-11T12:04:36.066Z,38.72
2017-09-11T12:07:02.604Z,38.58
2017-09-11T12:09:29.038Z,39.13
2017-09-11T12:11:55.479Z,39.41
2017-09-11T12:14:22.237Z,39.14
2017-09-11T12:16:48.652Z,39.32
2017-09-11T12:19:15.087Z,39.69
2017-09-11T12:21:41.930Z,39.78
2017-09-11T12:24:08.365Z,40.36
2017-09-11T12:26:34.903Z,41.09
2017-09-11T12:29:01.627Z,41.65
2017-09-11T12:31:27.975Z,41.74
2017-09-11T12:33:54.415Z,41.88
2017-09-11T12:36:20.807Z,42.07
2017-09-11T12:38:47.383Z,42.61
2017-09-11T12:41:13.818Z,43.17
2017-09-11T12:43:40.255Z,43.60
2017-09-11T12:46:06.791Z,43.91
2017-09-11T12:48:33.274Z,44.34
2017-09-11T12:50:59.867Z,43.89
2017-09-11T12:53:26.710Z,43.73
2017-09-11T12:55:53.247Z,44.29
2017-09-11T12:58:19.780Z,44.67
2017-09-11T13:00:46.319Z,44.70
2017-09-11T13:03:12.753Z,45.21
2017-09-11T13:05:39.188Z,45.26
2017-09-11T13:08:05.931Z,45.23
2017-09-11T13:10:32.271Z,45.22
2017-09-11T13:12:59.004Z,45.52
2017-09-11T13:15:25.710Z,45.68
2017-09-11T13:17:52.202Z,45.75
2017-09-11T13:20:18.923Z,45.61
2017-09-11T13:22:45.302Z,45.84
2017-09-11T13:25:12.072Z,45.54
2017-09-11T13:27:38.847Z,44.99
2017-09-11T13:30:05.383Z,45.11
2017-09-11T13:32:32.042Z,44.76
2017-09-11T13:34:58.868Z,44.54
2017-09-11T13:37:25.388Z,44.37
2017-09-11T13:39:51.870Z,44.73
2017-09-11T13:42:18.274Z,44.72
2017-09-11T13:44:44.665Z,44.58
2017-09-11T13:47:11.186Z,44.58
2017-09-11T13:49:37.679Z,44.49
2017-09-11T13:52:04.113Z,44.91
2017-09-11T13:54:30.753Z,44.83
2017-09-11T13:56:57.188Z,45.02
2017-09-11T13:59:23.725Z,45.41
2017-09-11T14:01:50.572Z,45.65
2017-09-11T14:04:17.005Z,45.39
2017-09-11T14:06:43.440Z,45.48
2017-09-11T14:09:10.079Z,44.72
2017-09-11T14:11:36.514Z,44.84
2017-09-11T14:14:02.972Z,44.82
2017-09-11T14:16:29.486Z,43.84
2017-09-11T14:18:56.230Z,42.86
2017-09-11T14:21:24.023Z,41.81
2017-09-11T14:23:51.101Z,41.12
2017-09-11T14:26:18.081Z,39.97
2017-09-11T14:28:44.631Z,39.20
2017-09-11T14:31:11.010Z,38.50
2017-09-11T14:36:13.753Z,36.95
2017-09-11T14:38:42.954Z,36.58
2017-09-11T14:41:12.025Z,36.14
2017-09-11T14:43:38.396Z,35.73
2017-09-11T14:46:06.458Z,35.49
2017-09-11T14:48:33.214Z,35.27
2017-09-11T14:51:00.555Z,35.07
2017-09-11T14:53:26.950Z,34.88
2017-09-11T14:55:53.385Z,34.78
2017-09-11T14:58:19.827Z,34.74
2017-09-11T15:00:46.309Z,34.55
2017-09-11T15:03:12.743Z,34.46
2017-09-11T15:05:39.793Z,34.31
2017-09-11T15:08:06.228Z,34.19
2017-09-11T15:10:32.663Z,34.20
2017-09-11T15:12:59.076Z,34.14
2017-09-11T15:15:25.486Z,34.11
2017-09-11T15:17:51.968Z,34.10
2017-09-11T15:20:18.504Z,34.05
2017-09-11T15:22:44.940Z,34.08
2017-09-11T15:25:11.375Z,34.08
2017-09-11T15:27:37.812Z,33.98
2017-09-11T15:30:04.199Z,33.86
2017-09-11T15:32:30.680Z,33.75
2017-09-11T15:34:57.115Z,33.61
2017-09-11T15:37:23.548Z,33.48
2017-09-11T15:39:49.984Z,33.37
2017-09-11T15:42:16.418Z,33.14
2017-09-11T15:44:42.803Z,33.14
2017-09-11T15:47:09.287Z,33.02
2017-09-11T15:49:35.722Z,32.95
2017-09-11T15:52:02.161Z,32.84
2017-09-11T15:54:28.592Z,32.76
2017-09-11T15:56:55.028Z,32.61
2017-09-11T15:59:21.975Z,32.50
2017-09-11T16:01:48.410Z,32.45
2017-09-11T16:04:14.845Z,32.34
2017-09-11T16:06:41.997Z,32.12
2017-09-11T16:09:08.433Z,32.20
2017-09-11T16:11:34.868Z,31.96
2017-09-11T16:14:01.303Z,31.92
2017-09-11T16:16:27.737Z,31.81
2017-09-11T16:18:54.151Z,31.76
2017-09-11T16:21:21.445Z,31.70
2017-09-11T16:23:47.880Z,31.54
2017-09-11T16:26:14.297Z,31.37
2017-09-11T16:28:40.836Z,31.14
2017-09-11T16:31:07.268Z,31.25
2017-09-11T16:33:33.805Z,31.18
2017-09-11T16:36:00.242Z,31.02
2017-09-11T16:38:26.675Z,30.96
2017-09-11T16:40:53.110Z,30.87
2017-09-11T16:43:19.545Z,30.77
2017-09-11T16:45:45.980Z,30.71
2017-09-11T16:48:12.415Z,30.65
2017-09-11T16:50:38.849Z,30.61
2017-09-11T16:53:05.387Z,30.56
2017-09-11T16:55:31.822Z,30.47
2017-09-11T16:57:58.206Z,30.24
2017-09-11T17:00:24.590Z,30.35
2017-09-11T17:02:51.026Z,30.32
2017-09-11T17:05:17.411Z,30.26
2017-09-11T17:07:43.894Z,30.23
2017-09-11T17:10:10.329Z,30.19
2017-09-11T17:12:36.764Z,30.13
2017-09-11T17:15:03.200Z,30.14
2017-09-11T17:17:29.585Z,30.10
2017-09-11T17:19:56.077Z,30.07
2017-09-11T17:22:23.176Z,29.93
2017-09-11T17:24:49.681Z,29.94
2017-09-11T17:27:16.094Z,29.90
2017-09-11T17:29:42.937Z,29.88
2017-09-11T17:32:09.371Z,29.88
2017-09-11T17:34:35.806Z,29.64
2017-09-11T17:37:02.188Z,29.66
2017-09-11T17:39:28.676Z,29.60
2017-09-11T17:41:55.112Z,29.66
2017-09-11T17:44:21.500Z,29.54
2017-09-11T17:46:47.926Z,29.49
2017-09-11T17:49:14.385Z,29.47
2017-09-11T17:51:40.747Z,29.46
2017-09-11T17:54:07.184Z,29.26
2017-09-11T17:56:33.616Z,29.40
2017-09-11T17:59:00.051Z,29.47
2017-09-11T18:01:26.488Z,29.57
2017-09-11T18:03:52.920Z,29.48
2017-09-11T18:06:19.358Z,29.43
2017-09-11T18:08:45.790Z,29.44
2017-09-11T18:11:12.175Z,29.41
2017-09-11T18:13:38.680Z,29.39
2017-09-11T18:16:05.207Z,29.35
2017-09-11T18:18:31.633Z,29.37
2017-09-11T18:20:58.068Z,29.39
2017-09-11T18:23:24.490Z,29.47
2017-09-11T18:25:50.886Z,29.49
2017-09-11T18:28:17.372Z,29.42
2017-09-11T18:30:43.814Z,29.43
2017-09-11T18:33:10.344Z,29.40
2017-09-11T18:35:36.779Z,29.35
2017-09-11T18:38:03.214Z,29.31
2017-09-11T18:40:29.649Z,29.32
2017-09-11T18:42:56.085Z,29.16
2017-09-11T18:45:23.237Z,29.35
2017-09-11T18:47:49.679Z,29.35
2017-09-11T18:50:16.105Z,29.30
2017-09-11T18:52:42.494Z,29.24
2017-09-11T18:55:08.974Z,29.24
2017-09-11T18:57:35.410Z,29.17
2017-09-11T19:00:01.833Z,29.11
2017-09-11T19:02:28.248Z,29.06
2017-09-11T19:04:54.817Z,29.01
2017-09-11T19:07:21.254Z,28.89
2017-09-11T19:09:47.687Z,28.86
2017-09-11T19:12:14.125Z,28.75
2017-09-11T19:14:40.557Z,28.71
2017-09-11T19:17:06.993Z,28.61
2017-09-11T19:19:33.428Z,28.66
2017-09-11T19:21:59.880Z,28.64
2017-09-11T19:24:26.243Z,28.58
2017-09-11T19:26:52.731Z,28.53
2017-09-11T19:29:19.186Z,28.46
2017-09-11T19:31:45.601Z,28.38
2017-09-11T19:34:12.037Z,28.32
2017-09-11T19:36:38.471Z,28.28
2017-09-11T19:39:04.905Z,28.32
2017-09-11T19:41:31.391Z,28.32
2017-09-11T19:43:57.877Z,28.40
2017-09-11T19:46:24.312Z,28.54
2017-09-11T19:48:50.748Z,28.63
2017-09-11T19:51:17.181Z,28.37
2017-09-11T19:53:43.619Z,28.56
2017-09-11T19:56:10.784Z,28.58
2017-09-11T19:58:37.203Z,28.57
2017-09-11T20:01:03.638Z,28.50
2017-09-11T20:03:30.024Z,28.50
2017-09-11T20:05:56.508Z,28.35
2017-09-11T20:08:22.860Z,28.29
2017-09-11T20:10:49.275Z,28.35
2017-09-11T20:13:15.665Z,28.36
2017-09-11T20:15:42.146Z,28.29
2017-09-11T20:18:08.558Z,28.25
2017-09-11T20:20:34.903Z,28.34
2017-09-11T20:23:01.343Z,28.17
2017-09-11T20:25:27.784Z,28.19
2017-09-11T20:27:54.935Z,28.14
2017-09-11T20:30:21.370Z,28.03
2017-09-11T20:32:47.805Z,27.88
2017-09-11T20:35:14.195Z,27.93
2017-09-11T20:37:40.693Z,27.87
2017-09-11T20:40:07.110Z,27.84
2017-09-11T20:42:34.211Z,27.78
2017-09-11T20:45:00.680Z,27.81
2017-09-11T20:47:27.123Z,27.77
2017-09-11T20:49:53.668Z,27.83
2017-09-11T20:52:20.308Z,27.77
2017-09-11T20:54:46.691Z,27.81
2017-09-11T20:57:13.127Z,27.81
2017-09-11T20:59:39.619Z,27.83
2017-09-11T21:02:05.999Z,27.83
2017-09-11T21:04:32.473Z,27.84
2017-09-11T21:06:58.917Z,27.75
2017-09-11T21:09:25.333Z,27.79
2017-09-11T21:11:51.776Z,27.78
2017-09-11T21:14:18.135Z,27.84
2017-09-11T21:16:44.554Z,27.77
2017-09-11T21:19:10.908Z,27.78
2017-09-11T21:21:37.322Z,27.74
2017-09-11T21:24:03.659Z,27.72
2017-09-11T21:26:30.109Z,27.79
2017-09-11T21:28:56.487Z,27.79
2017-09-11T21:31:22.945Z,27.80
2017-09-11T21:33:49.394Z,27.75
2017-09-11T21:36:15.834Z,27.82
2017-09-11T21:38:42.215Z,27.83
2017-09-11T21:41:08.649Z,27.86
2017-09-11T21:43:35.030Z,27.86
2017-09-11T21:46:01.488Z,27.82
2017-09-11T21:48:27.851Z,27.80
2017-09-11T21:50:54.323Z,27.89
2017-09-11T21:53:20.790Z,27.84
2017-09-11T21:55:47.205Z,27.79
2017-09-11T21:58:14.357Z,27.79
2017-09-11T22:00:40.791Z,27.85
2017-09-11T22:03:07.227Z,27.81
2017-09-11T22:05:33.661Z,27.81
2017-09-11T22:08:00.097Z,27.81
2017-09-11T22:10:26.535Z,27.73
2017-09-11T22:12:52.968Z,27.71
2017-09-11T22:15:19.402Z,27.70
2017-09-11T22:17:45.837Z,27.70
2017-09-11T22:20:12.199Z,27.64
2017-09-11T22:22:38.602Z,27.71
2017-09-11T22:25:05.041Z,27.68
2017-09-11T22:27:31.475Z,27.64
2017-09-11T22:29:57.910Z,27.63
2017-09-11T22:32:24.345Z,27.58
2017-09-11T22:34:50.779Z,27.56
2017-09-11T22:37:17.216Z,27.55
2017-09-11T22:39:43.647Z,27.53
2017-09-11T22:42:10.039Z,27.54
2017-09-11T22:44:36.508Z,27.51
2017-09-11T22:47:02.950Z,27.43
2017-09-11T22:49:29.334Z,27.46
2017-09-11T22:51:55.791Z,27.42
2017-09-11T22:54:22.205Z,27.31
2017-09-11T22:56:48.590Z,27.23
2017-09-11T22:59:15.045Z,27.19
2017-09-11T23:01:41.563Z,27.15
2017-09-11T23:04:08.797Z,27.11
2017-09-11T23:06:35.224Z,27.10
2017-09-11T23:09:01.692Z,27.08
2017-09-11T23:11:28.127Z,27.07
2017-09-11T23:13:54.562Z,27.02
2017-09-11T23:16:20.998Z,26.95
2017-09-11T23:18:47.432Z,26.89
2017-09-11T23:21:13.869Z,26.87
2017-09-11T23:23:40.301Z,26.88
2017-09-11T23:26:06.737Z,26.94
2017-09-11T23:28:33.171Z,26.88
2017-09-11T23:30:59.606Z,26.94
2017-09-11T23:33:26.042Z,26.88
2017-09-11T23:35:52.476Z,26.86
2017-09-11T23:38:18.916Z,26.86
2017-09-11T23:40:45.449Z,26.82
2017-09-11T23:43:11.853Z,26.86
2017-09-11T23:45:38.319Z,26.87
2017-09-11T23:48:04.753Z,26.80
2017-09-11T23:50:31.188Z,26.81
2017-09-11T23:52:58.463Z,26.72
2017-09-11T23:55:24.979Z,26.76
2017-09-11T23:57:51.414Z,26.75
